createdAt,value
2019-05-28T00:00:12.156Z,100850.19
2019-05-28T00:02:41.677Z,100845.47
2019-05-28T00:05:13.768Z,100845.58
2019-05-28T00:07:43.213Z,100850.00
2019-05-28T00:10:14.154Z,100849.22
2019-05-28T00:12:43.815Z,100851.09
2019-05-28T00:15:14.583Z,100853.30
2019-05-28T00:17:44.033Z,100856.41
2019-05-28T00:20:15.466Z,100856.92
2019-05-28T00:22:45.337Z,100856.14
2019-05-28T00:25:16.014Z,100854.44
2019-05-28T00:27:45.593Z,100855.28
2019-05-28T00:30:20.333Z,100847.11
2019-05-28T00:32:46.636Z,100850.13
2019-05-28T00:35:17.127Z,100851.83
2019-05-28T00:37:46.574Z,100853.23
2019-05-28T00:40:16.397Z,100843.41
2019-05-28T00:42:45.949Z,100850.41
2019-05-28T00:45:15.933Z,100849.60
2019-05-28T00:47:45.399Z,100855.67
2019-05-28T00:50:15.546Z,100851.11
2019-05-28T00:52:45.097Z,100855.59
2019-05-28T00:55:14.967Z,100855.08
2019-05-28T00:57:47.470Z,100854.58
2019-05-28T01:00:35.922Z,100859.80
2019-05-28T01:02:50.258Z,100861.16
2019-05-28T01:05:19.721Z,100853.05
2019-05-28T01:07:50.820Z,100854.00
2019-05-28T01:10:21.802Z,100853.25
2019-05-28T01:12:51.327Z,100851.55
2019-05-28T01:15:20.851Z,100848.60
2019-05-28T01:17:50.338Z,100847.30
2019-05-28T01:20:20.127Z,100846.70
2019-05-28T01:22:49.568Z,100847.72
2019-05-28T01:25:19.128Z,100847.96
2019-05-28T01:27:48.568Z,100848.86
2019-05-28T01:30:18.251Z,100852.13
2019-05-28T01:32:49.373Z,100850.03
2019-05-28T01:35:18.807Z,100852.23
2019-05-28T01:37:48.245Z,100855.14
2019-05-28T01:40:18.584Z,100855.64
2019-05-28T01:42:49.743Z,100858.84
2019-05-28T01:45:19.816Z,100854.64
2019-05-28T01:47:49.176Z,100851.38
2019-05-28T01:50:18.689Z,100870.54
2019-05-28T01:52:48.093Z,100858.05
2019-05-28T01:55:17.793Z,100865.86
2019-05-28T01:57:47.332Z,100863.80
2019-05-28T02:00:17.813Z,100865.20
2019-05-28T02:02:47.297Z,100857.44
2019-05-28T02:05:17.135Z,100870.52
2019-05-28T02:07:46.567Z,100869.96
2019-05-28T02:10:18.002Z,100868.81
2019-05-28T02:12:47.408Z,100866.34
2019-05-28T02:15:16.931Z,100874.25
2019-05-28T02:17:46.708Z,100874.70
2019-05-28T02:20:16.244Z,100870.80
2019-05-28T02:22:45.673Z,100873.58
2019-05-28T02:25:15.690Z,100872.77
2019-05-28T02:27:45.478Z,100868.50
2019-05-28T02:30:16.864Z,100871.59
2019-05-28T02:32:46.308Z,100872.09
2019-05-28T02:35:16.375Z,100876.11
2019-05-28T02:37:45.851Z,100880.95
2019-05-28T02:40:15.932Z,100871.12
2019-05-28T02:42:45.537Z,100877.23
2019-05-28T02:45:15.405Z,100878.27
2019-05-28T02:47:44.983Z,100878.36
2019-05-28T02:50:15.271Z,100883.52
2019-05-28T02:52:45.337Z,100878.72
2019-05-28T02:55:16.081Z,100873.10
2019-05-28T02:57:47.811Z,100877.05
2019-05-28T03:00:19.836Z,100879.30
2019-05-28T03:02:49.994Z,100875.84
2019-05-28T03:05:19.468Z,100881.59
2019-05-28T03:07:50.829Z,100875.70
2019-05-28T03:11:00.142Z,100876.20
2019-05-28T03:13:06.559Z,100879.34
2019-05-28T03:15:39.062Z,100875.07
2019-05-28T03:18:10.840Z,100876.02
2019-05-28T03:20:42.914Z,100875.57
2019-05-28T03:23:14.602Z,100876.91
2019-05-28T03:25:44.111Z,100875.61
2019-05-28T03:28:15.094Z,100874.80
2019-05-28T03:30:44.550Z,100874.84
2019-05-28T03:33:14.001Z,100881.21
2019-05-28T03:35:45.188Z,100876.86
2019-05-28T03:38:16.719Z,100878.48
2019-05-28T03:40:47.838Z,100878.25
2019-05-28T03:43:17.642Z,100879.23
2019-05-28T03:45:47.138Z,100880.13
2019-05-28T03:48:16.649Z,100886.19
2019-05-28T03:50:46.091Z,100889.28
2019-05-28T03:53:15.672Z,100887.98
2019-05-28T03:55:45.254Z,100887.08
2019-05-28T03:58:14.786Z,100898.27
2019-05-28T04:00:44.274Z,100898.23
2019-05-28T04:03:13.794Z,100897.01
2019-05-28T04:05:43.205Z,100902.09
2019-05-28T04:08:12.741Z,100903.70
2019-05-28T04:10:42.163Z,100899.72
2019-05-28T04:13:11.791Z,100901.34
2019-05-28T04:15:41.381Z,100905.33
2019-05-28T04:18:11.296Z,100905.66
2019-05-28T04:20:40.713Z,100908.20
2019-05-28T04:23:15.063Z,100910.09
2019-05-28T04:25:45.910Z,100911.03
2019-05-28T04:28:15.607Z,100915.42
2019-05-28T04:30:45.049Z,100910.13
2019-05-28T04:33:14.576Z,100918.36
2019-05-28T04:35:44.058Z,100917.20
2019-05-28T04:38:14.178Z,100918.73
2019-05-28T04:40:43.609Z,100917.57
2019-05-28T04:43:13.041Z,100918.09
2019-05-28T04:45:42.536Z,100919.53
2019-05-28T04:48:13.379Z,100920.91
2019-05-28T04:50:42.793Z,100920.97
2019-05-28T04:53:12.323Z,100916.67
2019-05-28T04:55:43.277Z,100916.17
2019-05-28T04:58:12.726Z,100911.90
2019-05-28T05:00:42.128Z,100913.34
2019-05-28T05:03:11.656Z,100916.53
2019-05-28T05:05:41.141Z,100913.17
2019-05-28T05:08:10.579Z,100914.95
2019-05-28T05:10:39.989Z,100916.64
2019-05-28T05:13:11.100Z,100922.16
2019-05-28T05:15:40.492Z,100915.13
2019-05-28T05:18:09.942Z,100914.25
2019-05-28T05:20:39.345Z,100909.27
2019-05-28T05:23:08.932Z,100915.23
2019-05-28T05:25:38.331Z,100911.75
2019-05-28T05:28:07.767Z,100908.89
2019-05-28T05:30:40.418Z,100916.14
2019-05-28T05:33:19.925Z,100919.94
2019-05-28T05:35:42.532Z,100919.28
2019-05-28T05:38:12.005Z,100924.05
2019-05-28T05:40:41.430Z,100929.08
2019-05-28T05:43:11.144Z,100926.81
2019-05-28T05:45:40.550Z,100928.84
2019-05-28T05:48:09.981Z,100934.35
2019-05-28T05:50:39.518Z,100940.06
2019-05-28T05:53:08.966Z,100935.98
2019-05-28T05:55:38.642Z,100930.14
2019-05-28T05:58:09.553Z,100935.63
2019-05-28T06:00:38.999Z,100934.06
2019-05-28T06:03:08.700Z,100943.80
2019-05-28T06:05:38.141Z,100935.75
2019-05-28T06:08:07.648Z,100931.86
2019-05-28T06:10:37.217Z,100928.09
2019-05-28T06:13:06.651Z,100931.22
2019-05-28T06:15:36.084Z,100928.05
2019-05-28T06:18:05.584Z,100931.41
2019-05-28T06:20:35.017Z,100933.30
2019-05-28T06:23:04.504Z,100932.56
2019-05-28T06:25:34.017Z,100932.84
2019-05-28T06:28:03.782Z,100936.36
2019-05-28T06:30:33.235Z,100942.12
2019-05-28T06:33:02.652Z,100941.61
2019-05-28T06:35:32.202Z,100944.23
2019-05-28T06:38:01.596Z,100949.45
2019-05-28T06:40:31.052Z,100945.09
2019-05-28T06:43:00.447Z,100946.64
2019-05-28T06:45:30.598Z,100945.70
2019-05-28T06:48:00.145Z,100948.59
2019-05-28T06:50:29.740Z,100943.13
2019-05-28T06:52:59.225Z,100949.37
2019-05-28T06:55:30.182Z,100950.13
2019-05-28T06:57:59.947Z,100951.70
2019-05-28T07:00:29.596Z,100945.44
2019-05-28T07:02:59.022Z,100949.48
2019-05-28T07:05:28.705Z,100956.61
2019-05-28T07:07:58.155Z,100956.72
2019-05-28T07:10:27.657Z,100957.98
2019-05-28T07:12:57.208Z,100964.69
2019-05-28T07:15:26.761Z,100968.16
2019-05-28T07:17:59.601Z,100970.89
2019-05-28T07:20:28.308Z,100976.96
2019-05-28T07:22:57.756Z,100980.80
2019-05-28T07:25:27.520Z,100979.69
2019-05-28T07:28:10.329Z,100980.45
2019-05-28T07:30:28.079Z,100984.81
2019-05-28T07:32:57.772Z,100981.97
2019-05-28T07:35:27.289Z,100984.05
2019-05-28T07:37:56.805Z,100984.91
2019-05-28T07:40:31.453Z,100990.56
2019-05-28T07:42:57.568Z,100994.26
2019-05-28T07:45:27.161Z,100992.17
2019-05-28T07:47:58.307Z,100998.34
2019-05-28T07:50:27.767Z,100999.52
2019-05-28T07:52:57.891Z,101001.16
2019-05-28T07:55:27.339Z,101003.14
2019-05-28T07:57:56.771Z,101007.59
2019-05-28T08:00:29.440Z,101006.66
2019-05-28T08:02:58.866Z,101008.12
2019-05-28T08:05:28.317Z,101007.45
2019-05-28T08:07:58.056Z,101004.08
2019-05-28T08:10:29.461Z,101004.71
2019-05-28T08:12:59.626Z,101009.34
2019-05-28T08:15:29.223Z,101007.07
2019-05-28T08:17:58.618Z,101004.95
2019-05-28T08:20:28.299Z,101005.38
2019-05-28T08:23:00.740Z,101013.02
2019-05-28T08:25:46.066Z,101022.80
2019-05-28T08:28:18.783Z,101017.73
2019-05-28T08:30:32.499Z,101015.60
2019-05-28T08:33:01.936Z,101012.77
2019-05-28T08:35:31.347Z,101017.38
2019-05-28T08:38:00.895Z,101023.97
2019-05-28T08:40:30.299Z,101037.52
2019-05-28T08:42:59.857Z,101031.86
2019-05-28T08:45:29.310Z,101029.33
2019-05-28T08:48:00.386Z,101026.39
2019-05-28T08:50:34.320Z,101036.61
2019-05-28T08:53:00.983Z,101035.52
2019-05-28T08:55:30.405Z,101043.32
2019-05-28T08:58:01.663Z,101049.50
2019-05-28T09:00:39.612Z,101044.94
2019-05-28T09:03:09.376Z,101055.79
2019-05-28T09:05:39.017Z,101047.09
2019-05-28T09:08:08.662Z,101049.86
2019-05-28T09:10:38.192Z,101047.30
2019-05-28T09:13:07.692Z,101041.83
2019-05-28T09:15:40.089Z,101046.14
2019-05-28T09:18:09.543Z,101036.67
2019-05-28T09:20:39.308Z,101041.45
2019-05-28T09:23:08.789Z,101043.21
2019-05-28T09:25:38.268Z,101041.73
2019-05-28T09:28:07.646Z,101040.98
2019-05-28T09:30:37.292Z,101038.42
2019-05-28T09:33:06.729Z,101044.55
2019-05-28T09:35:44.804Z,101048.05
2019-05-28T09:38:09.629Z,101061.23
2019-05-28T09:40:49.991Z,101064.08
2019-05-28T09:43:10.205Z,101063.26
2019-05-28T09:45:39.710Z,101065.05
2019-05-28T09:48:09.133Z,101073.93
2019-05-28T09:50:38.772Z,101068.15
2019-05-28T09:53:08.192Z,101080.22
2019-05-28T09:55:38.480Z,101072.88
2019-05-28T09:58:08.134Z,101080.00
2019-05-28T10:00:56.610Z,101083.25
2019-05-28T10:03:11.893Z,101075.59
2019-05-28T10:05:56.799Z,101088.91
2019-05-28T10:08:12.439Z,101094.31
2019-05-28T10:10:41.984Z,101087.74
2019-05-28T10:13:11.441Z,101091.84
2019-05-28T10:15:40.913Z,101097.02
2019-05-28T10:18:10.390Z,101097.58
2019-05-28T10:20:39.787Z,101099.68
2019-05-28T10:23:09.279Z,101106.42
2019-05-28T10:25:38.682Z,101106.67
2019-05-28T10:28:08.148Z,101107.47
2019-05-28T10:30:37.634Z,101108.20
2019-05-28T10:33:07.196Z,101118.66
2019-05-28T10:35:36.810Z,101114.56
2019-05-28T10:38:06.344Z,101116.70
2019-05-28T10:40:35.879Z,101133.50
2019-05-28T10:43:06.068Z,101134.00
2019-05-28T10:45:37.167Z,101133.44
2019-05-28T10:48:06.746Z,101136.16
2019-05-28T10:50:36.271Z,101138.87
2019-05-28T10:53:06.890Z,101130.87
2019-05-28T10:55:36.321Z,101131.70
2019-05-28T10:58:05.724Z,101139.75
2019-05-28T11:00:35.505Z,101140.94
2019-05-28T11:03:05.242Z,101157.41
2019-05-28T11:05:36.496Z,101153.06
2019-05-28T11:08:06.076Z,101161.59
2019-05-28T11:10:35.995Z,101161.29
2019-05-28T11:13:05.843Z,101166.47
2019-05-28T11:15:35.303Z,101165.16
2019-05-28T11:18:05.344Z,101170.66
2019-05-28T11:20:35.047Z,101171.98
2019-05-28T11:23:04.541Z,101169.56
2019-05-28T11:25:34.057Z,101174.14
2019-05-28T11:28:03.658Z,101174.59
2019-05-28T11:30:33.171Z,101177.92
2019-05-28T11:33:02.622Z,101181.81
2019-05-28T11:35:32.065Z,101178.12
2019-05-28T11:38:01.736Z,101183.19
2019-05-28T11:40:31.256Z,101186.02
2019-05-28T11:43:02.174Z,101185.50
2019-05-28T11:45:31.641Z,101190.83
2019-05-28T11:48:01.297Z,101194.50
2019-05-28T11:50:30.830Z,101195.09
2019-05-28T11:53:00.352Z,101203.77
2019-05-28T11:55:29.837Z,101207.02
2019-05-28T11:57:59.281Z,101205.05
2019-05-28T12:00:29.249Z,101205.91
2019-05-28T12:02:58.696Z,101204.52
2019-05-28T12:05:28.682Z,101212.46
2019-05-28T12:07:58.191Z,101210.45
2019-05-28T12:10:28.534Z,101218.00
2019-05-28T12:12:59.847Z,101217.92
2019-05-28T12:15:29.389Z,101222.55
2019-05-28T12:17:59.106Z,101226.61
2019-05-28T12:20:29.151Z,101224.50
2019-05-28T12:23:10.643Z,101219.31
2019-05-28T12:25:29.954Z,101222.14
2019-05-28T12:27:59.398Z,101225.59
2019-05-28T12:30:29.245Z,101231.53
2019-05-28T12:32:58.702Z,101240.00
2019-05-28T12:35:30.195Z,101247.53
2019-05-28T12:38:00.871Z,101249.16
2019-05-28T12:40:46.295Z,101257.72
2019-05-28T12:43:01.637Z,101250.75
2019-05-28T12:45:35.744Z,101255.08
2019-05-28T12:48:11.115Z,101256.22
2019-05-28T12:50:34.076Z,101254.80
2019-05-28T12:53:03.603Z,101255.95
2019-05-28T12:55:33.173Z,101264.16
2019-05-28T12:58:02.689Z,101265.06
2019-05-28T13:00:32.578Z,101267.91
2019-05-28T13:03:02.029Z,101271.05
2019-05-28T13:05:32.025Z,101272.49
2019-05-28T13:08:09.085Z,101276.05
2019-05-28T13:10:32.634Z,101276.25
2019-05-28T13:13:02.138Z,101279.44
2019-05-28T13:15:33.086Z,101280.77
2019-05-28T13:18:02.504Z,101286.84
2019-05-28T13:20:32.224Z,101291.63
2019-05-28T13:23:01.641Z,101297.95
2019-05-28T13:25:31.425Z,101298.39
2019-05-28T13:28:02.366Z,101309.17
2019-05-28T13:30:31.837Z,101317.41
2019-05-28T13:33:01.311Z,101320.56
2019-05-28T13:35:30.774Z,101324.81
2019-05-28T13:38:00.193Z,101329.63
2019-05-28T13:40:29.712Z,101330.95
2019-05-28T13:42:59.194Z,101333.53
2019-05-28T13:45:28.628Z,101332.89
2019-05-28T13:47:58.045Z,101331.11
2019-05-28T13:50:29.590Z,101337.32
2019-05-28T13:52:59.887Z,101336.69
2019-05-28T13:55:29.395Z,101350.49
2019-05-28T13:57:58.981Z,101349.88
2019-05-28T14:00:29.252Z,101347.38
2019-05-28T14:02:58.953Z,101347.86
2019-05-28T14:05:28.456Z,101345.70
2019-05-28T14:07:57.896Z,101349.56
2019-05-28T14:10:28.010Z,101350.25
2019-05-28T14:12:59.010Z,101360.48
2019-05-28T14:15:28.459Z,101364.45
2019-05-28T14:17:57.977Z,101371.80
2019-05-28T14:20:27.750Z,101375.05
2019-05-28T14:22:57.160Z,101368.20
2019-05-28T14:25:26.677Z,101371.89
2019-05-28T14:27:56.102Z,101375.23
2019-05-28T14:30:26.194Z,101374.33
2019-05-28T14:32:56.440Z,101380.73
2019-05-28T14:35:25.951Z,101388.63
2019-05-28T14:37:55.429Z,101391.11
2019-05-28T14:40:25.296Z,101390.52
2019-05-28T14:42:54.758Z,101391.93
2019-05-28T14:45:25.239Z,101393.25
2019-05-28T14:47:55.217Z,101394.83
2019-05-28T14:50:27.324Z,101396.27
2019-05-28T14:52:57.490Z,101392.52
2019-05-28T14:55:27.124Z,101389.31
2019-05-28T14:57:56.597Z,101394.11
2019-05-28T15:00:26.198Z,101393.69
2019-05-28T15:02:57.236Z,101397.34
2019-05-28T15:05:28.129Z,101403.89
2019-05-28T15:07:57.685Z,101404.58
2019-05-28T15:10:27.262Z,101414.27
2019-05-28T15:12:56.751Z,101417.63
2019-05-28T15:15:35.766Z,101421.70
2019-05-28T15:17:57.467Z,101419.58
2019-05-28T15:20:27.015Z,101421.34
2019-05-28T15:22:56.458Z,101419.19
2019-05-28T15:25:25.945Z,101431.42
2019-05-28T15:27:55.472Z,101427.66
2019-05-28T15:30:25.076Z,101422.45
2019-05-28T15:32:54.555Z,101439.49
2019-05-28T15:35:24.614Z,101439.54
2019-05-28T15:37:54.078Z,101445.27
2019-05-28T15:40:25.075Z,101439.20
2019-05-28T15:43:05.572Z,101452.28
2019-05-28T15:45:25.981Z,101454.05
2019-05-28T15:47:55.516Z,101452.39
2019-05-28T15:50:25.155Z,101453.82
2019-05-28T15:52:58.787Z,101448.20
2019-05-28T15:55:27.223Z,101455.61
2019-05-28T15:57:56.667Z,101455.02
2019-05-28T16:00:26.331Z,101457.48
2019-05-28T16:02:56.119Z,101460.86
2019-05-28T16:05:25.686Z,101467.48
2019-05-28T16:07:55.160Z,101466.81
2019-05-28T16:10:24.603Z,101469.24
2019-05-28T16:12:54.056Z,101470.95
2019-05-28T16:15:23.635Z,101469.36
2019-05-28T16:17:53.119Z,101477.31
2019-05-28T16:20:22.664Z,101481.18
2019-05-28T16:22:52.129Z,101480.72
2019-05-28T16:25:21.782Z,101491.14
2019-05-28T16:27:51.346Z,101493.50
2019-05-28T16:30:22.435Z,101491.97
2019-05-28T16:32:51.893Z,101502.28
2019-05-28T16:35:21.354Z,101504.66
2019-05-28T16:37:50.799Z,101517.27
2019-05-28T16:40:20.457Z,101521.19
2019-05-28T16:42:49.909Z,101528.52
2019-05-28T16:45:19.562Z,101526.00
2019-05-28T16:47:49.025Z,101529.72
2019-05-28T16:50:18.773Z,101530.48
2019-05-28T16:52:48.359Z,101532.09
2019-05-28T16:55:18.445Z,101523.02
2019-05-28T16:57:48.080Z,101529.55
2019-05-28T17:00:19.133Z,101530.93
2019-05-28T17:02:48.607Z,101538.45
2019-05-28T17:05:18.255Z,101536.86
2019-05-28T17:07:47.909Z,101538.25
2019-05-28T17:10:31.412Z,101540.11
2019-05-28T17:12:49.119Z,101546.28
2019-05-28T17:15:19.379Z,101554.45
2019-05-28T17:17:48.824Z,101553.75
2019-05-28T17:20:19.588Z,101556.08
2019-05-28T17:22:49.284Z,101555.62
2019-05-28T17:25:19.029Z,101558.58
2019-05-28T17:27:48.499Z,101558.31
2019-05-28T17:30:23.793Z,101555.36
2019-05-28T17:32:49.282Z,101565.19
2019-05-28T17:35:18.964Z,101564.66
2019-05-28T17:37:48.487Z,101576.47
2019-05-28T17:40:21.752Z,101573.73
2019-05-28T17:42:51.372Z,101573.75
2019-05-28T17:45:21.173Z,101579.22
2019-05-28T17:47:50.601Z,101585.72
2019-05-28T17:50:20.243Z,101589.43
2019-05-28T17:52:51.540Z,101588.89
2019-05-28T17:55:21.194Z,101600.05
2019-05-28T17:57:50.923Z,101602.02
2019-05-28T18:00:20.838Z,101614.03
2019-05-28T18:02:50.251Z,101615.02
2019-05-28T18:05:21.276Z,101615.97
2019-05-28T18:07:53.829Z,101620.50
2019-05-28T18:10:23.595Z,101624.67
2019-05-28T18:12:53.018Z,101622.20
2019-05-28T18:15:22.526Z,101641.11
2019-05-28T18:17:52.038Z,101633.09
2019-05-28T18:20:21.555Z,101633.44
2019-05-28T18:22:51.081Z,101642.89
2019-05-28T18:25:20.911Z,101638.17
2019-05-28T18:27:50.373Z,101642.28
2019-05-28T18:30:20.130Z,101648.89
2019-05-28T18:32:49.716Z,101659.00
2019-05-28T18:35:20.219Z,101664.97
2019-05-28T18:37:49.805Z,101661.31
2019-05-28T18:40:20.202Z,101666.52
2019-05-28T18:42:51.262Z,101661.94
2019-05-28T18:45:20.789Z,101677.23
2019-05-28T18:47:50.205Z,101684.37
2019-05-28T18:50:19.726Z,101684.27
2019-05-28T18:52:49.194Z,101686.52
2019-05-28T18:55:23.446Z,101685.39
2019-05-28T18:57:51.616Z,101688.40
2019-05-28T19:00:21.208Z,101697.41
2019-05-28T19:02:50.618Z,101698.02
2019-05-28T19:05:20.209Z,101706.28
2019-05-28T19:07:49.708Z,101697.47
2019-05-28T19:10:19.284Z,101703.47
2019-05-28T19:12:48.693Z,101706.92
2019-05-28T19:15:18.284Z,101706.11
2019-05-28T19:17:47.770Z,101708.50
2019-05-28T19:20:17.462Z,101716.62
2019-05-28T19:22:46.897Z,101720.20
2019-05-28T19:25:16.683Z,101720.20
2019-05-28T19:27:46.088Z,101726.09
2019-05-28T19:30:17.355Z,101737.63
2019-05-28T19:32:47.523Z,101732.74
2019-05-28T19:35:18.615Z,101737.23
2019-05-28T19:37:48.173Z,101738.19
2019-05-28T19:40:20.683Z,101748.95
2019-05-28T19:42:50.098Z,101750.86
2019-05-28T19:45:19.622Z,101752.80
2019-05-28T19:47:49.950Z,101761.66
2019-05-28T19:50:19.478Z,101768.42
2019-05-28T19:52:48.869Z,101773.70
2019-05-28T19:55:18.648Z,101770.67
2019-05-28T19:57:48.107Z,101776.33
2019-05-28T20:00:18.064Z,101776.81
2019-05-28T20:02:47.468Z,101778.34
2019-05-28T20:05:17.365Z,101783.98
2019-05-28T20:07:46.822Z,101788.30
2019-05-28T20:10:16.693Z,101794.23
2019-05-28T20:12:47.746Z,101792.25
2019-05-28T20:15:20.986Z,101797.16
2019-05-28T20:17:50.291Z,101801.58
2019-05-28T20:20:21.744Z,101808.72
2019-05-28T20:22:51.950Z,101806.67
2019-05-28T20:25:21.675Z,101807.75
2019-05-28T20:27:51.874Z,101815.11
2019-05-28T20:30:21.921Z,101811.08
2019-05-28T20:32:54.876Z,101816.45
2019-05-28T20:35:22.823Z,101820.99
2019-05-28T20:37:52.236Z,101824.61
2019-05-28T20:40:22.323Z,101828.70
2019-05-28T20:42:51.808Z,101830.66
2019-05-28T20:45:21.430Z,101823.96
2019-05-28T20:47:50.843Z,101832.43
2019-05-28T20:50:20.403Z,101827.86
2019-05-28T20:52:49.852Z,101834.83
2019-05-28T20:55:19.534Z,101830.13
2019-05-28T20:57:49.200Z,101828.91
2019-05-28T21:00:19.059Z,101829.54
2019-05-28T21:02:49.496Z,101823.12
2019-05-28T21:05:19.159Z,101831.91
2019-05-28T21:07:49.974Z,101835.58
2019-05-28T21:10:20.599Z,101828.34
2019-05-28T21:12:50.620Z,101827.56
2019-05-28T21:15:20.228Z,101838.86
2019-05-28T21:17:51.062Z,101838.86
2019-05-28T21:20:20.674Z,101840.15
2019-05-28T21:22:50.176Z,101848.78
2019-05-28T21:25:19.667Z,101845.27
2019-05-28T21:27:49.969Z,101841.47
2019-05-28T21:30:20.051Z,101840.70
2019-05-28T21:32:50.648Z,101848.92
2019-05-28T21:35:20.232Z,101852.35
2019-05-28T21:37:51.001Z,101859.56
2019-05-28T21:40:21.133Z,101864.27
2019-05-28T21:43:00.250Z,101866.39
2019-05-28T21:45:22.490Z,101873.83
2019-05-28T21:47:52.438Z,101872.98
2019-05-28T21:50:22.191Z,101875.50
2019-05-28T21:52:52.859Z,101875.97
2019-05-28T21:55:22.421Z,101878.55
2019-05-28T21:57:51.861Z,101882.47
2019-05-28T22:00:44.190Z,101889.88
2019-05-28T22:03:13.772Z,101885.54
2019-05-28T22:05:43.224Z,101889.11
2019-05-28T22:08:12.997Z,101881.78
2019-05-28T22:10:42.449Z,101892.24
2019-05-28T22:13:21.527Z,101892.79
2019-05-28T22:15:43.184Z,101895.05
2019-05-28T22:18:12.620Z,101900.75
2019-05-28T22:20:42.060Z,101895.14
2019-05-28T22:23:11.648Z,101902.14
2019-05-28T22:25:41.229Z,101903.47
2019-05-28T22:28:10.731Z,101903.93
2019-05-28T22:30:40.134Z,101906.61
2019-05-28T22:33:09.660Z,101910.98
2019-05-28T22:35:39.141Z,101911.48
2019-05-28T22:38:08.639Z,101911.10
2019-05-28T22:40:38.109Z,101913.33
2019-05-28T22:43:07.527Z,101927.20
2019-05-28T22:45:41.773Z,101921.61
2019-05-28T22:48:15.319Z,101922.05
2019-05-28T22:50:39.450Z,101921.24
2019-05-28T22:53:08.899Z,101915.63
2019-05-28T22:55:38.372Z,101915.20
2019-05-28T22:58:08.663Z,101917.00
2019-05-28T23:00:38.269Z,101922.67
2019-05-28T23:03:09.061Z,101921.37
2019-05-28T23:05:39.169Z,101927.88
2019-05-28T23:08:09.886Z,101924.84
2019-05-28T23:10:39.541Z,101926.63
2019-05-28T23:13:09.192Z,101927.97
2019-05-28T23:15:38.663Z,101924.52
2019-05-28T23:18:09.279Z,101926.68
2019-05-28T23:20:39.333Z,101931.47
2019-05-28T23:23:09.389Z,101920.27
2019-05-28T23:25:38.863Z,101926.80
2019-05-28T23:28:09.699Z,101935.08
2019-05-28T23:30:39.366Z,101938.15
2019-05-28T23:33:10.404Z,101941.23
2019-05-28T23:35:40.004Z,101943.42
2019-05-28T23:38:09.428Z,101960.33
2019-05-28T23:40:38.961Z,101953.80
2019-05-28T23:43:09.529Z,101963.78
2019-05-28T23:45:39.059Z,101959.44
2019-05-28T23:48:13.292Z,101961.13
2019-05-28T23:50:39.834Z,101964.19
2019-05-28T23:53:09.634Z,101964.19
2019-05-28T23:55:39.332Z,101970.25
2019-05-28T23:58:10.299Z,101971.14
